sensor_id;sensor_type;location;lat;lon;timestamp;P1;durP1;ratioP1;P2;durP2;ratioP2
41952;SDS011;63613;28.200;112.870;2023-03-16T00:00:09;15.77;;;10.25;;
41952;SDS011;63613;28.200;112.870;2023-03-16T00:02:41;15.07;;;9.45;;
41952;SDS011;63613;28.200;112.870;2023-03-16T00:05:09;18.33;;;9.02;;
41952;SDS011;63613;28.200;112.870;2023-03-16T00:07:40;17.42;;;10.43;;
41952;SDS011;63613;28.200;112.870;2023-03-16T00:10:08;16.58;;;8.98;;
41952;SDS011;63613;28.200;112.870;2023-03-16T00:12:39;15.43;;;9.73;;
41952;SDS011;63613;28.200;112.870;2023-03-16T00:15:08;16.02;;;10.00;;
41952;SDS011;63613;28.200;112.870;2023-03-16T00:17:35;17.95;;;9.50;;
41952;SDS011;63613;28.200;112.870;2023-03-16T00:20:01;22.98;;;10.18;;
41952;SDS011;63613;28.200;112.870;2023-03-16T00:22:33;20.80;;;9.70;;
41952;SDS011;63613;28.200;112.870;2023-03-16T00:25:00;17.60;;;9.65;;
41952;SDS011;63613;28.200;112.870;2023-03-16T00:27:29;20.92;;;9.77;;
41952;SDS011;63613;28.200;112.870;2023-03-16T00:29:56;20.20;;;9.35;;
41952;SDS011;63613;28.200;112.870;2023-03-16T00:32:24;20.20;;;10.02;;
41952;SDS011;63613;28.200;112.870;2023-03-16T00:35:00;21.65;;;10.05;;
41952;SDS011;63613;28.200;112.870;2023-03-16T00:37:29;21.23;;;10.02;;
41952;SDS011;63613;28.200;112.870;2023-03-16T00:40:01;20.50;;;9.95;;
41952;SDS011;63613;28.200;112.870;2023-03-16T00:42:29;22.27;;;10.00;;
41952;SDS011;63613;28.200;112.870;2023-03-16T00:44:58;18.35;;;9.52;;
41952;SDS011;63613;28.200;112.870;2023-03-16T00:47:27;19.98;;;9.80;;
41952;SDS011;63613;28.200;112.870;2023-03-16T00:49:57;14.85;;;9.43;;
41952;SDS011;63613;28.200;112.870;2023-03-16T00:52:25;19.25;;;9.60;;
41952;SDS011;63613;28.200;112.870;2023-03-16T00:54:53;17.35;;;9.63;;
41952;SDS011;63613;28.200;112.870;2023-03-16T00:57:21;18.65;;;8.68;;
41952;SDS011;63613;28.200;112.870;2023-03-16T00:59:49;17.38;;;9.50;;
41952;SDS011;63613;28.200;112.870;2023-03-16T01:02:17;19.48;;;9.73;;
41952;SDS011;63613;28.200;112.870;2023-03-16T01:04:47;19.95;;;9.93;;
41952;SDS011;63613;28.200;112.870;2023-03-16T01:07:15;19.38;;;9.60;;
41952;SDS011;63613;28.200;112.870;2023-03-16T01:09:42;17.58;;;8.55;;
41952;SDS011;63613;28.200;112.870;2023-03-16T01:12:29;19.85;;;9.40;;
41952;SDS011;63613;28.200;112.870;2023-03-16T01:14:55;16.73;;;8.77;;
41952;SDS011;63613;28.200;112.870;2023-03-16T01:17:22;18.42;;;8.88;;
41952;SDS011;63613;28.200;112.870;2023-03-16T01:19:49;17.13;;;9.95;;
41952;SDS011;63613;28.200;112.870;2023-03-16T01:22:16;21.35;;;8.60;;
41952;SDS011;63613;28.200;112.870;2023-03-16T01:24:43;18.95;;;8.25;;
41952;SDS011;63613;28.200;112.870;2023-03-16T01:27:11;17.88;;;8.82;;
41952;SDS011;63613;28.200;112.870;2023-03-16T01:29:39;18.73;;;8.23;;
41952;SDS011;63613;28.200;112.870;2023-03-16T01:32:07;16.15;;;8.25;;
41952;SDS011;63613;28.200;112.870;2023-03-16T01:34:34;14.25;;;8.90;;
41952;SDS011;63613;28.200;112.870;2023-03-16T01:37:01;17.52;;;8.27;;
41952;SDS011;63613;28.200;112.870;2023-03-16T01:39:28;15.10;;;7.43;;
41952;SDS011;63613;28.200;112.870;2023-03-16T01:41:55;16.73;;;8.43;;
41952;SDS011;63613;28.200;112.870;2023-03-16T01:44:23;16.17;;;8.85;;
41952;SDS011;63613;28.200;112.870;2023-03-16T01:46:56;14.55;;;8.85;;
41952;SDS011;63613;28.200;112.870;2023-03-16T01:51:57;15.32;;;8.48;;
41952;SDS011;63613;28.200;112.870;2023-03-16T01:54:30;16.90;;;8.32;;
41952;SDS011;63613;28.200;112.870;2023-03-16T02:00:02;16.38;;;8.75;;
41952;SDS011;63613;28.200;112.870;2023-03-16T02:02:36;16.20;;;8.73;;
41952;SDS011;63613;28.200;112.870;2023-03-16T02:05:13;16.85;;;7.32;;
41952;SDS011;63613;28.200;112.870;2023-03-16T02:07:47;12.45;;;6.55;;
41952;SDS011;63613;28.200;112.870;2023-03-16T02:10:17;16.25;;;8.15;;
41952;SDS011;63613;28.200;112.870;2023-03-16T02:12:47;13.05;;;7.55;;
41952;SDS011;63613;28.200;112.870;2023-03-16T02:15:14;13.45;;;8.18;;
41952;SDS011;63613;28.200;112.870;2023-03-16T02:17:42;16.73;;;7.93;;
41952;SDS011;63613;28.200;112.870;2023-03-16T02:22:50;12.45;;;7.80;;
41952;SDS011;63613;28.200;112.870;2023-03-16T02:25:19;11.98;;;7.60;;
41952;SDS011;63613;28.200;112.870;2023-03-16T02:31:13;11.88;;;7.22;;
41952;SDS011;63613;28.200;112.870;2023-03-16T02:33:43;15.50;;;7.93;;
41952;SDS011;63613;28.200;112.870;2023-03-16T02:36:13;11.27;;;7.13;;
41952;SDS011;63613;28.200;112.870;2023-03-16T02:38:40;10.02;;;6.97;;
41952;SDS011;63613;28.200;112.870;2023-03-16T02:41:13;12.43;;;8.30;;
41952;SDS011;63613;28.200;112.870;2023-03-16T02:43:43;15.10;;;7.68;;
41952;SDS011;63613;28.200;112.870;2023-03-16T02:46:14;15.55;;;7.95;;
41952;SDS011;63613;28.200;112.870;2023-03-16T02:48:43;13.68;;;7.90;;
41952;SDS011;63613;28.200;112.870;2023-03-16T02:51:24;16.70;;;8.35;;
41952;SDS011;63613;28.200;112.870;2023-03-16T02:53:50;15.35;;;8.07;;
41952;SDS011;63613;28.200;112.870;2023-03-16T02:56:17;12.63;;;7.30;;
41952;SDS011;63613;28.200;112.870;2023-03-16T02:58:44;15.95;;;8.23;;
41952;SDS011;63613;28.200;112.870;2023-03-16T03:01:10;17.92;;;8.40;;
41952;SDS011;63613;28.200;112.870;2023-03-16T03:03:37;16.85;;;7.88;;
41952;SDS011;63613;28.200;112.870;2023-03-16T03:06:04;17.90;;;8.30;;
41952;SDS011;63613;28.200;112.870;2023-03-16T03:08:32;14.43;;;8.57;;
41952;SDS011;63613;28.200;112.870;2023-03-16T03:10:59;14.60;;;7.80;;
41952;SDS011;63613;28.200;112.870;2023-03-16T03:13:26;14.55;;;8.32;;
41952;SDS011;63613;28.200;112.870;2023-03-16T03:15:53;16.25;;;8.80;;
41952;SDS011;63613;28.200;112.870;2023-03-16T03:18:20;19.33;;;8.55;;
41952;SDS011;63613;28.200;112.870;2023-03-16T03:20:49;15.88;;;7.90;;
41952;SDS011;63613;28.200;112.870;2023-03-16T03:23:16;15.20;;;8.48;;
41952;SDS011;63613;28.200;112.870;2023-03-16T03:25:43;11.10;;;8.32;;
41952;SDS011;63613;28.200;112.870;2023-03-16T03:28:33;17.27;;;8.52;;
41952;SDS011;63613;28.200;112.870;2023-03-16T03:31:20;18.80;;;7.85;;
41952;SDS011;63613;28.200;112.870;2023-03-16T03:33:47;18.80;;;8.45;;
41952;SDS011;63613;28.200;112.870;2023-03-16T03:36:14;15.02;;;7.65;;
41952;SDS011;63613;28.200;112.870;2023-03-16T03:38:41;16.48;;;8.15;;
41952;SDS011;63613;28.200;112.870;2023-03-16T03:41:08;17.42;;;8.55;;
41952;SDS011;63613;28.200;112.870;2023-03-16T03:43:35;15.35;;;8.65;;
41952;SDS011;63613;28.200;112.870;2023-03-16T03:46:02;13.10;;;7.80;;
41952;SDS011;63613;28.200;112.870;2023-03-16T03:48:29;16.33;;;8.35;;
41952;SDS011;63613;28.200;112.870;2023-03-16T03:50:58;18.02;;;8.95;;
41952;SDS011;63613;28.200;112.870;2023-03-16T03:53:25;15.60;;;9.75;;
41952;SDS011;63613;28.200;112.870;2023-03-16T03:55:52;17.25;;;10.38;;
41952;SDS011;63613;28.200;112.870;2023-03-16T03:58:19;20.45;;;10.50;;
41952;SDS011;63613;28.200;112.870;2023-03-16T04:00:46;22.70;;;10.88;;
41952;SDS011;63613;28.200;112.870;2023-03-16T04:03:13;20.38;;;10.95;;
41952;SDS011;63613;28.200;112.870;2023-03-16T04:05:59;24.17;;;11.88;;
41952;SDS011;63613;28.200;112.870;2023-03-16T04:08:26;24.50;;;12.27;;
41952;SDS011;63613;28.200;112.870;2023-03-16T04:10:53;23.13;;;12.30;;
41952;SDS011;63613;28.200;112.870;2023-03-16T04:13:20;20.35;;;12.60;;
41952;SDS011;63613;28.200;112.870;2023-03-16T04:15:47;24.48;;;13.60;;
41952;SDS011;63613;28.200;112.870;2023-03-16T04:18:14;26.33;;;13.13;;
41952;SDS011;63613;28.200;112.870;2023-03-16T04:20:41;23.92;;;13.05;;
41952;SDS011;63613;28.200;112.870;2023-03-16T04:23:08;29.55;;;14.05;;
41952;SDS011;63613;28.200;112.870;2023-03-16T04:25:36;25.08;;;13.75;;
41952;SDS011;63613;28.200;112.870;2023-03-16T04:28:03;22.35;;;13.30;;
41952;SDS011;63613;28.200;112.870;2023-03-16T04:30:53;22.40;;;12.70;;
41952;SDS011;63613;28.200;112.870;2023-03-16T04:33:40;24.23;;;13.55;;
41952;SDS011;63613;28.200;112.870;2023-03-16T04:36:07;26.30;;;12.90;;
41952;SDS011;63613;28.200;112.870;2023-03-16T04:38:34;20.77;;;13.00;;
41952;SDS011;63613;28.200;112.870;2023-03-16T04:41:04;23.33;;;11.85;;
41952;SDS011;63613;28.200;112.870;2023-03-16T04:43:33;22.35;;;13.13;;
41952;SDS011;63613;28.200;112.870;2023-03-16T04:46:00;24.63;;;12.98;;
41952;SDS011;63613;28.200;112.870;2023-03-16T04:48:32;23.80;;;11.98;;
41952;SDS011;63613;28.200;112.870;2023-03-16T04:51:00;20.40;;;11.07;;
41952;SDS011;63613;28.200;112.870;2023-03-16T04:53:29;18.58;;;11.80;;
41952;SDS011;63613;28.200;112.870;2023-03-16T04:55:59;24.60;;;12.85;;
41952;SDS011;63613;28.200;112.870;2023-03-16T04:58:26;22.75;;;12.68;;
41952;SDS011;63613;28.200;112.870;2023-03-16T05:00:53;22.42;;;12.43;;
41952;SDS011;63613;28.200;112.870;2023-03-16T05:03:20;21.58;;;12.52;;
41952;SDS011;63613;28.200;112.870;2023-03-16T05:05:50;22.98;;;13.40;;
41952;SDS011;63613;28.200;112.870;2023-03-16T05:08:17;27.63;;;14.40;;
41952;SDS011;63613;28.200;112.870;2023-03-16T05:10:45;28.35;;;12.32;;
41952;SDS011;63613;28.200;112.870;2023-03-16T05:13:12;24.00;;;11.57;;
41952;SDS011;63613;28.200;112.870;2023-03-16T05:15:40;27.65;;;13.60;;
41952;SDS011;63613;28.200;112.870;2023-03-16T05:18:11;23.75;;;11.32;;
41952;SDS011;63613;28.200;112.870;2023-03-16T05:20:38;27.73;;;12.93;;
41952;SDS011;63613;28.200;112.870;2023-03-16T05:23:05;24.73;;;12.85;;
41952;SDS011;63613;28.200;112.870;2023-03-16T05:25:37;23.20;;;13.55;;
41952;SDS011;63613;28.200;112.870;2023-03-16T05:28:04;24.38;;;11.93;;
41952;SDS011;63613;28.200;112.870;2023-03-16T05:30:31;24.30;;;12.50;;
41952;SDS011;63613;28.200;112.870;2023-03-16T05:33:02;24.75;;;12.50;;
41952;SDS011;63613;28.200;112.870;2023-03-16T05:35:50;28.00;;;13.30;;
41952;SDS011;63613;28.200;112.870;2023-03-16T05:38:16;24.33;;;11.77;;
41952;SDS011;63613;28.200;112.870;2023-03-16T05:40:43;23.45;;;11.45;;
41952;SDS011;63613;28.200;112.870;2023-03-16T05:43:10;26.23;;;12.55;;
41952;SDS011;63613;28.200;112.870;2023-03-16T05:45:37;26.10;;;12.18;;
41952;SDS011;63613;28.200;112.870;2023-03-16T05:48:05;23.30;;;11.70;;
41952;SDS011;63613;28.200;112.870;2023-03-16T05:50:32;20.98;;;11.65;;
41952;SDS011;63613;28.200;112.870;2023-03-16T05:53:19;20.30;;;11.40;;
41952;SDS011;63613;28.200;112.870;2023-03-16T05:55:53;19.17;;;10.40;;
41952;SDS011;63613;28.200;112.870;2023-03-16T05:58:40;20.98;;;10.43;;
41952;SDS011;63613;28.200;112.870;2023-03-16T06:01:07;21.10;;;10.60;;
41952;SDS011;63613;28.200;112.870;2023-03-16T06:03:37;24.25;;;11.20;;
41952;SDS011;63613;28.200;112.870;2023-03-16T06:06:03;24.35;;;10.25;;
41952;SDS011;63613;28.200;112.870;2023-03-16T06:08:30;20.55;;;11.15;;
41952;SDS011;63613;28.200;112.870;2023-03-16T06:10:58;21.63;;;10.30;;
41952;SDS011;63613;28.200;112.870;2023-03-16T06:13:25;20.42;;;10.10;;
41952;SDS011;63613;28.200;112.870;2023-03-16T06:15:55;22.27;;;10.30;;
41952;SDS011;63613;28.200;112.870;2023-03-16T06:18:21;17.83;;;10.40;;
41952;SDS011;63613;28.200;112.870;2023-03-16T06:21:08;25.27;;;12.05;;
41952;SDS011;63613;28.200;112.870;2023-03-16T06:23:35;21.50;;;10.10;;
41952;SDS011;63613;28.200;112.870;2023-03-16T06:26:15;27.65;;;11.07;;
41952;SDS011;63613;28.200;112.870;2023-03-16T06:28:42;20.80;;;10.45;;
41952;SDS011;63613;28.200;112.870;2023-03-16T06:31:10;21.75;;;10.73;;
41952;SDS011;63613;28.200;112.870;2023-03-16T06:33:38;22.02;;;10.45;;
41952;SDS011;63613;28.200;112.870;2023-03-16T06:36:06;20.00;;;10.40;;
41952;SDS011;63613;28.200;112.870;2023-03-16T06:38:33;22.95;;;9.80;;
41952;SDS011;63613;28.200;112.870;2023-03-16T06:41:01;26.10;;;11.50;;
41952;SDS011;63613;28.200;112.870;2023-03-16T06:43:28;26.20;;;9.57;;
41952;SDS011;63613;28.200;112.870;2023-03-16T06:45:55;20.48;;;9.88;;
41952;SDS011;63613;28.200;112.870;2023-03-16T06:48:23;23.00;;;10.10;;
41952;SDS011;63613;28.200;112.870;2023-03-16T06:51:11;21.77;;;9.95;;
41952;SDS011;63613;28.200;112.870;2023-03-16T06:53:38;20.52;;;10.05;;
41952;SDS011;63613;28.200;112.870;2023-03-16T06:56:05;18.65;;;11.25;;
41952;SDS011;63613;28.200;112.870;2023-03-16T06:58:32;22.10;;;9.30;;
41952;SDS011;63613;28.200;112.870;2023-03-16T07:01:02;20.55;;;10.77;;
41952;SDS011;63613;28.200;112.870;2023-03-16T07:03:30;20.23;;;9.27;;
41952;SDS011;63613;28.200;112.870;2023-03-16T07:05:57;18.58;;;9.48;;
41952;SDS011;63613;28.200;112.870;2023-03-16T07:08:24;21.17;;;9.50;;
41952;SDS011;63613;28.200;112.870;2023-03-16T07:10:51;18.60;;;9.80;;
41952;SDS011;63613;28.200;112.870;2023-03-16T07:13:20;16.77;;;9.90;;
41952;SDS011;63613;28.200;112.870;2023-03-16T07:15:49;21.50;;;9.98;;
41952;SDS011;63613;28.200;112.870;2023-03-16T07:18:22;19.00;;;10.05;;
41952;SDS011;63613;28.200;112.870;2023-03-16T07:20:51;19.05;;;9.45;;
41952;SDS011;63613;28.200;112.870;2023-03-16T07:23:21;21.08;;;9.13;;
41952;SDS011;63613;28.200;112.870;2023-03-16T07:26:09;15.70;;;9.48;;
41952;SDS011;63613;28.200;112.870;2023-03-16T07:28:38;24.85;;;10.52;;
41952;SDS011;63613;28.200;112.870;2023-03-16T07:31:05;25.75;;;10.45;;
41952;SDS011;63613;28.200;112.870;2023-03-16T07:33:34;22.17;;;10.27;;
41952;SDS011;63613;28.200;112.870;2023-03-16T07:36:01;23.50;;;10.85;;
41952;SDS011;63613;28.200;112.870;2023-03-16T07:38:29;23.58;;;11.30;;
41952;SDS011;63613;28.200;112.870;2023-03-16T07:40:57;19.13;;;8.80;;
41952;SDS011;63613;28.200;112.870;2023-03-16T07:43:24;21.15;;;9.10;;
41952;SDS011;63613;28.200;112.870;2023-03-16T07:45:51;20.63;;;10.10;;
41952;SDS011;63613;28.200;112.870;2023-03-16T07:48:19;19.17;;;9.32;;
41952;SDS011;63613;28.200;112.870;2023-03-16T07:50:47;20.67;;;9.65;;
41952;SDS011;63613;28.200;112.870;2023-03-16T07:53:15;19.95;;;8.52;;
41952;SDS011;63613;28.200;112.870;2023-03-16T07:55:42;17.55;;;8.77;;
41952;SDS011;63613;28.200;112.870;2023-03-16T07:58:29;21.83;;;9.13;;
41952;SDS011;63613;28.200;112.870;2023-03-16T08:00:56;15.90;;;8.48;;
41952;SDS011;63613;28.200;112.870;2023-03-16T08:03:24;18.45;;;8.48;;
41952;SDS011;63613;28.200;112.870;2023-03-16T08:05:56;19.92;;;9.95;;
41952;SDS011;63613;28.200;112.870;2023-03-16T08:08:23;16.30;;;9.13;;
41952;SDS011;63613;28.200;112.870;2023-03-16T08:10:50;15.52;;;8.32;;
41952;SDS011;63613;28.200;112.870;2023-03-16T08:13:20;18.98;;;8.73;;
41952;SDS011;63613;28.200;112.870;2023-03-16T08:15:47;20.67;;;8.15;;
41952;SDS011;63613;28.200;112.870;2023-03-16T08:18:20;20.50;;;8.73;;
41952;SDS011;63613;28.200;112.870;2023-03-16T08:20:48;15.73;;;9.07;;
41952;SDS011;63613;28.200;112.870;2023-03-16T08:23:15;17.88;;;9.27;;
41952;SDS011;63613;28.200;112.870;2023-03-16T08:25:42;28.55;;;9.43;;
41952;SDS011;63613;28.200;112.870;2023-03-16T08:28:09;22.20;;;9.27;;
41952;SDS011;63613;28.200;112.870;2023-03-16T08:30:42;19.48;;;8.70;;
41952;SDS011;63613;28.200;112.870;2023-03-16T08:33:13;16.83;;;9.18;;
41952;SDS011;63613;28.200;112.870;2023-03-16T08:35:42;18.90;;;8.80;;
41952;SDS011;63613;28.200;112.870;2023-03-16T08:38:10;20.50;;;10.35;;
41952;SDS011;63613;28.200;112.870;2023-03-16T08:40:41;18.15;;;9.23;;
41952;SDS011;63613;28.200;112.870;2023-03-16T08:43:14;19.98;;;9.98;;
41952;SDS011;63613;28.200;112.870;2023-03-16T08:45:45;20.90;;;9.35;;
41952;SDS011;63613;28.200;112.870;2023-03-16T08:48:13;17.83;;;8.98;;
41952;SDS011;63613;28.200;112.870;2023-03-16T08:50:40;21.90;;;9.73;;
41952;SDS011;63613;28.200;112.870;2023-03-16T08:53:11;18.85;;;10.25;;
41952;SDS011;63613;28.200;112.870;2023-03-16T08:56:03;18.25;;;9.50;;
41952;SDS011;63613;28.200;112.870;2023-03-16T08:58:31;21.67;;;10.50;;
41952;SDS011;63613;28.200;112.870;2023-03-16T09:00:59;22.73;;;10.43;;
41952;SDS011;63613;28.200;112.870;2023-03-16T09:03:28;18.58;;;8.70;;
41952;SDS011;63613;28.200;112.870;2023-03-16T09:05:59;15.48;;;8.85;;
41952;SDS011;63613;28.200;112.870;2023-03-16T09:08:28;19.88;;;8.98;;
41952;SDS011;63613;28.200;112.870;2023-03-16T09:10:59;21.92;;;8.82;;
41952;SDS011;63613;28.200;112.870;2023-03-16T09:13:32;17.98;;;9.20;;
41952;SDS011;63613;28.200;112.870;2023-03-16T09:16:06;21.52;;;9.30;;
41952;SDS011;63613;28.200;112.870;2023-03-16T09:18:34;19.77;;;10.05;;
41952;SDS011;63613;28.200;112.870;2023-03-16T09:21:02;15.93;;;9.60;;
41952;SDS011;63613;28.200;112.870;2023-03-16T09:23:31;20.25;;;9.80;;
41952;SDS011;63613;28.200;112.870;2023-03-16T09:26:00;18.58;;;10.18;;
41952;SDS011;63613;28.200;112.870;2023-03-16T09:28:29;16.27;;;8.68;;
41952;SDS011;63613;28.200;112.870;2023-03-16T09:30:57;21.55;;;10.27;;
41952;SDS011;63613;28.200;112.870;2023-03-16T09:33:26;18.35;;;10.20;;
41952;SDS011;63613;28.200;112.870;2023-03-16T09:35:54;19.65;;;10.15;;
41952;SDS011;63613;28.200;112.870;2023-03-16T09:38:22;17.83;;;9.23;;
41952;SDS011;63613;28.200;112.870;2023-03-16T09:41:00;19.70;;;10.73;;
41952;SDS011;63613;28.200;112.870;2023-03-16T09:47:22;22.90;;;10.23;;
41952;SDS011;63613;28.200;112.870;2023-03-16T09:49:58;20.55;;;10.38;;
41952;SDS011;63613;28.200;112.870;2023-03-16T09:52:31;18.70;;;10.18;;
41952;SDS011;63613;28.200;112.870;2023-03-16T09:57:48;19.83;;;10.55;;
41952;SDS011;63613;28.200;112.870;2023-03-16T10:00:29;20.63;;;11.48;;
41952;SDS011;63613;28.200;112.870;2023-03-16T10:05:47;22.77;;;12.48;;
41952;SDS011;63613;28.200;112.870;2023-03-16T10:08:20;25.30;;;11.90;;
41952;SDS011;63613;28.200;112.870;2023-03-16T10:11:02;26.33;;;13.27;;
41952;SDS011;63613;28.200;112.870;2023-03-16T10:16:26;20.70;;;12.60;;
41952;SDS011;63613;28.200;112.870;2023-03-16T10:19:19;22.15;;;13.00;;
41952;SDS011;63613;28.200;112.870;2023-03-16T10:22:21;24.02;;;12.57;;
41952;SDS011;63613;28.200;112.870;2023-03-16T10:27:39;19.45;;;12.18;;
41952;SDS011;63613;28.200;112.870;2023-03-16T10:30:26;23.05;;;12.95;;
41952;SDS011;63613;28.200;112.870;2023-03-16T10:33:00;21.33;;;13.07;;
41952;SDS011;63613;28.200;112.870;2023-03-16T10:38:40;26.42;;;12.52;;
41952;SDS011;63613;28.200;112.870;2023-03-16T10:41:21;22.48;;;13.00;;
41952;SDS011;63613;28.200;112.870;2023-03-16T10:43:54;28.75;;;13.77;;
41952;SDS011;63613;28.200;112.870;2023-03-16T10:46:34;30.65;;;14.60;;
41952;SDS011;63613;28.200;112.870;2023-03-16T10:49:19;27.88;;;14.27;;
41952;SDS011;63613;28.200;112.870;2023-03-16T10:51:53;26.42;;;14.07;;
41952;SDS011;63613;28.200;112.870;2023-03-16T10:54:31;22.67;;;13.75;;
41952;SDS011;63613;28.200;112.870;2023-03-16T11:00:11;27.23;;;13.93;;
41952;SDS011;63613;28.200;112.870;2023-03-16T11:02:47;23.17;;;12.98;;
41952;SDS011;63613;28.200;112.870;2023-03-16T11:07:57;22.98;;;12.65;;
41952;SDS011;63613;28.200;112.870;2023-03-16T11:10:39;25.95;;;14.25;;
41952;SDS011;63613;28.200;112.870;2023-03-16T11:18:15;26.20;;;13.32;;
41952;SDS011;63613;28.200;112.870;2023-03-16T11:21:15;22.55;;;13.48;;
41952;SDS011;63613;28.200;112.870;2023-03-16T11:24:03;22.33;;;12.60;;
41952;SDS011;63613;28.200;112.870;2023-03-16T11:26:40;23.13;;;14.10;;
41952;SDS011;63613;28.200;112.870;2023-03-16T11:32:23;24.33;;;13.70;;
41952;SDS011;63613;28.200;112.870;2023-03-16T11:34:54;20.13;;;12.65;;
41952;SDS011;63613;28.200;112.870;2023-03-16T11:37:29;27.88;;;14.80;;
41952;SDS011;63613;28.200;112.870;2023-03-16T11:45:41;27.55;;;14.15;;
41952;SDS011;63613;28.200;112.870;2023-03-16T11:48:22;25.75;;;14.18;;
41952;SDS011;63613;28.200;112.870;2023-03-16T11:54:00;19.58;;;12.75;;
41952;SDS011;63613;28.200;112.870;2023-03-16T11:56:44;18.77;;;13.18;;
41952;SDS011;63613;28.200;112.870;2023-03-16T11:59:39;23.83;;;12.77;;
41952;SDS011;63613;28.200;112.870;2023-03-16T12:02:27;22.52;;;13.70;;
41952;SDS011;63613;28.200;112.870;2023-03-16T12:05:26;20.08;;;12.32;;
41952;SDS011;63613;28.200;112.870;2023-03-16T12:13:04;18.83;;;13.27;;
41952;SDS011;63613;28.200;112.870;2023-03-16T12:18:59;18.65;;;12.45;;
41952;SDS011;63613;28.200;112.870;2023-03-16T12:21:38;19.95;;;11.65;;
41952;SDS011;63613;28.200;112.870;2023-03-16T12:24:12;18.67;;;12.98;;
41952;SDS011;63613;28.200;112.870;2023-03-16T12:26:47;20.38;;;12.05;;
41952;SDS011;63613;28.200;112.870;2023-03-16T12:31:52;19.60;;;12.05;;
41952;SDS011;63613;28.200;112.870;2023-03-16T12:34:31;22.90;;;11.90;;
41952;SDS011;63613;28.200;112.870;2023-03-16T12:45:10;26.33;;;15.70;;
41952;SDS011;63613;28.200;112.870;2023-03-16T12:50:28;26.23;;;13.82;;
41952;SDS011;63613;28.200;112.870;2023-03-16T12:52:56;28.77;;;13.68;;
41952;SDS011;63613;28.200;112.870;2023-03-16T12:55:24;24.65;;;13.60;;
41952;SDS011;63613;28.200;112.870;2023-03-16T12:58:15;27.85;;;13.60;;
41952;SDS011;63613;28.200;112.870;2023-03-16T13:00:53;26.58;;;13.15;;
41952;SDS011;63613;28.200;112.870;2023-03-16T13:03:23;23.67;;;12.55;;
41952;SDS011;63613;28.200;112.870;2023-03-16T13:05:53;23.30;;;12.95;;
41952;SDS011;63613;28.200;112.870;2023-03-16T13:08:23;21.08;;;12.70;;
41952;SDS011;63613;28.200;112.870;2023-03-16T13:11:03;22.60;;;12.98;;
41952;SDS011;63613;28.200;112.870;2023-03-16T13:13:30;22.40;;;11.77;;
41952;SDS011;63613;28.200;112.870;2023-03-16T13:16:08;20.15;;;11.85;;
41952;SDS011;63613;28.200;112.870;2023-03-16T13:18:47;15.80;;;10.68;;
41952;SDS011;63613;28.200;112.870;2023-03-16T13:26:50;20.02;;;11.25;;
41952;SDS011;63613;28.200;112.870;2023-03-16T13:29:27;20.15;;;10.82;;
41952;SDS011;63613;28.200;112.870;2023-03-16T13:32:01;19.60;;;11.65;;
41952;SDS011;63613;28.200;112.870;2023-03-16T13:34:46;16.98;;;10.52;;
41952;SDS011;63613;28.200;112.870;2023-03-16T13:37:17;15.38;;;10.38;;
41952;SDS011;63613;28.200;112.870;2023-03-16T13:39:52;17.85;;;11.30;;
41952;SDS011;63613;28.200;112.870;2023-03-16T13:42:30;19.52;;;10.85;;
41952;SDS011;63613;28.200;112.870;2023-03-16T13:44:58;18.52;;;10.75;;
41952;SDS011;63613;28.200;112.870;2023-03-16T13:47:41;19.48;;;11.95;;
41952;SDS011;63613;28.200;112.870;2023-03-16T13:50:10;15.75;;;10.35;;
41952;SDS011;63613;28.200;112.870;2023-03-16T13:53:20;14.15;;;10.23;;
41952;SDS011;63613;28.200;112.870;2023-03-16T13:55:53;15.32;;;9.73;;
41952;SDS011;63613;28.200;112.870;2023-03-16T13:58:29;15.77;;;9.75;;
41952;SDS011;63613;28.200;112.870;2023-03-16T14:01:03;15.90;;;9.85;;
41952;SDS011;63613;28.200;112.870;2023-03-16T14:03:38;14.23;;;9.70;;
41952;SDS011;63613;28.200;112.870;2023-03-16T14:08:59;13.75;;;9.48;;
41952;SDS011;63613;28.200;112.870;2023-03-16T14:11:30;18.30;;;9.52;;
41952;SDS011;63613;28.200;112.870;2023-03-16T14:13:59;16.42;;;9.15;;
41952;SDS011;63613;28.200;112.870;2023-03-16T14:16:37;15.25;;;9.95;;
41952;SDS011;63613;28.200;112.870;2023-03-16T14:19:15;18.08;;;10.00;;
41952;SDS011;63613;28.200;112.870;2023-03-16T14:21:47;16.80;;;9.48;;
41952;SDS011;63613;28.200;112.870;2023-03-16T14:26:55;13.60;;;8.63;;
41952;SDS011;63613;28.200;112.870;2023-03-16T14:29:29;15.20;;;9.43;;
41952;SDS011;63613;28.200;112.870;2023-03-16T14:31:57;16.38;;;8.60;;
41952;SDS011;63613;28.200;112.870;2023-03-16T14:34:28;13.20;;;8.55;;
41952;SDS011;63613;28.200;112.870;2023-03-16T14:39:44;14.13;;;8.18;;
41952;SDS011;63613;28.200;112.870;2023-03-16T14:42:28;12.43;;;8.55;;
41952;SDS011;63613;28.200;112.870;2023-03-16T14:44:58;14.55;;;8.63;;
41952;SDS011;63613;28.200;112.870;2023-03-16T14:47:29;11.80;;;7.38;;
41952;SDS011;63613;28.200;112.870;2023-03-16T14:50:06;10.85;;;8.18;;
41952;SDS011;63613;28.200;112.870;2023-03-16T14:52:37;11.30;;;7.95;;
41952;SDS011;63613;28.200;112.870;2023-03-16T14:55:12;12.40;;;8.05;;
41952;SDS011;63613;28.200;112.870;2023-03-16T14:57:41;10.60;;;7.45;;
41952;SDS011;63613;28.200;112.870;2023-03-16T15:00:12;13.70;;;6.85;;
41952;SDS011;63613;28.200;112.870;2023-03-16T15:02:44;12.00;;;7.75;;
41952;SDS011;63613;28.200;112.870;2023-03-16T15:05:25;12.60;;;7.85;;
41952;SDS011;63613;28.200;112.870;2023-03-16T15:07:56;10.02;;;7.28;;
41952;SDS011;63613;28.200;112.870;2023-03-16T15:10:24;11.77;;;6.95;;
41952;SDS011;63613;28.200;112.870;2023-03-16T15:12:54;11.20;;;7.28;;
41952;SDS011;63613;28.200;112.870;2023-03-16T15:15:31;11.20;;;7.32;;
41952;SDS011;63613;28.200;112.870;2023-03-16T15:17:58;15.38;;;7.72;;
41952;SDS011;63613;28.200;112.870;2023-03-16T15:20:27;11.60;;;6.85;;
41952;SDS011;63613;28.200;112.870;2023-03-16T15:22:59;9.57;;;7.00;;
41952;SDS011;63613;28.200;112.870;2023-03-16T15:25:35;11.65;;;7.50;;
41952;SDS011;63613;28.200;112.870;2023-03-16T15:28:12;7.97;;;6.47;;
41952;SDS011;63613;28.200;112.870;2023-03-16T15:30:42;10.48;;;6.35;;
41952;SDS011;63613;28.200;112.870;2023-03-16T15:33:13;10.90;;;6.80;;
41952;SDS011;63613;28.200;112.870;2023-03-16T15:35:40;9.80;;;6.93;;
41952;SDS011;63613;28.200;112.870;2023-03-16T15:38:13;9.98;;;6.05;;
41952;SDS011;63613;28.200;112.870;2023-03-16T15:40:48;8.10;;;6.07;;
41952;SDS011;63613;28.200;112.870;2023-03-16T15:43:18;9.48;;;5.85;;
41952;SDS011;63613;28.200;112.870;2023-03-16T15:45:52;8.82;;;6.45;;
41952;SDS011;63613;28.200;112.870;2023-03-16T15:48:39;8.23;;;5.82;;
41952;SDS011;63613;28.200;112.870;2023-03-16T15:51:07;9.52;;;6.15;;
41952;SDS011;63613;28.200;112.870;2023-03-16T15:54:04;9.10;;;5.95;;
41952;SDS011;63613;28.200;112.870;2023-03-16T15:56:37;9.23;;;5.53;;